sensor_id;sensor_type;location;lat;lon;timestamp;temperature;humidity
9977;DHT22;5029;47.378;11.776;2023-03-14T00:01:08;7.20;99.90
9977;DHT22;5029;47.378;11.776;2023-03-14T00:06:12;7.10;99.90
9977;DHT22;5029;47.378;11.776;2023-03-14T00:11:19;7.10;99.90
9977;DHT22;5029;47.378;11.776;2023-03-14T00:16:27;7.20;99.90
9977;DHT22;5029;47.378;11.776;2023-03-14T00:21:30;6.70;99.90
9977;DHT22;5029;47.378;11.776;2023-03-14T00:26:35;6.60;99.90
9977;DHT22;5029;47.378;11.776;2023-03-14T00:31:38;6.40;99.90
9977;DHT22;5029;47.378;11.776;2023-03-14T00:36:42;6.50;99.90
9977;DHT22;5029;47.378;11.776;2023-03-14T00:41:48;6.40;99.90
9977;DHT22;5029;47.378;11.776;2023-03-14T00:46:52;7.20;99.90
9977;DHT22;5029;47.378;11.776;2023-03-14T00:51:55;6.60;99.90
9977;DHT22;5029;47.378;11.776;2023-03-14T00:57:00;6.50;99.90
9977;DHT22;5029;47.378;11.776;2023-03-14T01:02:03;6.40;99.90
9977;DHT22;5029;47.378;11.776;2023-03-14T01:07:07;6.30;99.90
9977;DHT22;5029;47.378;11.776;2023-03-14T01:12:12;6.10;99.90
9977;DHT22;5029;47.378;11.776;2023-03-14T01:17:15;6.20;99.90
9977;DHT22;5029;47.378;11.776;2023-03-14T01:22:19;6.20;99.90
9977;DHT22;5029;47.378;11.776;2023-03-14T01:27:24;6.40;99.90
9977;DHT22;5029;47.378;11.776;2023-03-14T01:32:29;6.30;99.90
9977;DHT22;5029;47.378;11.776;2023-03-14T01:37:32;6.80;99.90
9977;DHT22;5029;47.378;11.776;2023-03-14T01:42:37;6.60;99.90
9977;DHT22;5029;47.378;11.776;2023-03-14T01:47:41;6.50;99.90
9977;DHT22;5029;47.378;11.776;2023-03-14T01:52:46;6.60;99.90
9977;DHT22;5029;47.378;11.776;2023-03-14T01:57:55;7.70;99.90
9977;DHT22;5029;47.378;11.776;2023-03-14T02:03:02;8.00;99.90
9977;DHT22;5029;47.378;11.776;2023-03-14T02:08:12;8.40;99.90
9977;DHT22;5029;47.378;11.776;2023-03-14T02:13:19;9.10;99.90
9977;DHT22;5029;47.378;11.776;2023-03-14T02:18:24;9.30;99.90
9977;DHT22;5029;47.378;11.776;2023-03-14T02:23:34;9.10;99.90
9977;DHT22;5029;47.378;11.776;2023-03-14T02:28:41;9.30;99.90
9977;DHT22;5029;47.378;11.776;2023-03-14T02:33:45;9.20;99.90
9977;DHT22;5029;47.378;11.776;2023-03-14T02:38:55;9.30;99.90
9977;DHT22;5029;47.378;11.776;2023-03-14T02:44:03;9.20;99.90
9977;DHT22;5029;47.378;11.776;2023-03-14T02:49:09;9.00;99.90
9977;DHT22;5029;47.378;11.776;2023-03-14T02:54:14;9.00;99.90
9977;DHT22;5029;47.378;11.776;2023-03-14T02:59:19;9.30;99.90
9977;DHT22;5029;47.378;11.776;2023-03-14T03:04:23;8.90;99.90
9977;DHT22;5029;47.378;11.776;2023-03-14T03:09:26;8.80;99.90
9977;DHT22;5029;47.378;11.776;2023-03-14T03:14:31;8.20;99.90
9977;DHT22;5029;47.378;11.776;2023-03-14T03:19:35;7.90;99.90
9977;DHT22;5029;47.378;11.776;2023-03-14T03:24:38;7.60;99.90
9977;DHT22;5029;47.378;11.776;2023-03-14T03:29:43;7.40;99.90
9977;DHT22;5029;47.378;11.776;2023-03-14T03:34:46;7.30;99.90
9977;DHT22;5029;47.378;11.776;2023-03-14T03:39:50;7.20;99.90
9977;DHT22;5029;47.378;11.776;2023-03-14T03:44:55;6.80;99.90
9977;DHT22;5029;47.378;11.776;2023-03-14T03:49:58;6.60;99.90
9977;DHT22;5029;47.378;11.776;2023-03-14T03:55:02;6.40;99.90
9977;DHT22;5029;47.378;11.776;2023-03-14T04:00:09;6.30;99.90
9977;DHT22;5029;47.378;11.776;2023-03-14T04:05:13;6.10;99.90
9977;DHT22;5029;47.378;11.776;2023-03-14T04:10:17;6.30;99.90
9977;DHT22;5029;47.378;11.776;2023-03-14T04:15:22;5.90;99.90
9977;DHT22;5029;47.378;11.776;2023-03-14T04:20:25;5.70;99.90
9977;DHT22;5029;47.378;11.776;2023-03-14T04:25:28;5.60;99.90
9977;DHT22;5029;47.378;11.776;2023-03-14T04:30:35;5.60;99.90
9977;DHT22;5029;47.378;11.776;2023-03-14T04:35:38;5.30;99.90
9977;DHT22;5029;47.378;11.776;2023-03-14T04:40:42;5.30;99.90
9977;DHT22;5029;47.378;11.776;2023-03-14T04:45:48;5.30;99.90
9977;DHT22;5029;47.378;11.776;2023-03-14T04:50:51;5.40;99.90
9977;DHT22;5029;47.378;11.776;2023-03-14T04:55:55;5.30;99.90
9977;DHT22;5029;47.378;11.776;2023-03-14T05:01:03;5.20;99.90
9977;DHT22;5029;47.378;11.776;2023-03-14T05:06:08;5.10;99.90
9977;DHT22;5029;47.378;11.776;2023-03-14T05:11:11;4.90;99.90
9977;DHT22;5029;47.378;11.776;2023-03-14T05:16:16;5.00;99.90
9977;DHT22;5029;47.378;11.776;2023-03-14T05:21:19;4.80;99.90
9977;DHT22;5029;47.378;11.776;2023-03-14T05:26:23;4.80;99.90
9977;DHT22;5029;47.378;11.776;2023-03-14T05:31:28;4.80;99.90
9977;DHT22;5029;47.378;11.776;2023-03-14T05:36:31;4.70;99.90
9977;DHT22;5029;47.378;11.776;2023-03-14T05:41:34;4.70;99.90
9977;DHT22;5029;47.378;11.776;2023-03-14T05:46:39;4.90;99.90
9977;DHT22;5029;47.378;11.776;2023-03-14T05:51:42;4.80;99.90
9977;DHT22;5029;47.378;11.776;2023-03-14T05:56:45;4.70;99.90
9977;DHT22;5029;47.378;11.776;2023-03-14T06:01:50;4.60;99.90
9977;DHT22;5029;47.378;11.776;2023-03-14T06:06:54;4.60;99.90
9977;DHT22;5029;47.378;11.776;2023-03-14T06:11:57;4.60;99.90
9977;DHT22;5029;47.378;11.776;2023-03-14T06:17:02;4.60;99.90
9977;DHT22;5029;47.378;11.776;2023-03-14T06:22:05;4.60;99.90
9977;DHT22;5029;47.378;11.776;2023-03-14T06:27:08;4.70;99.90
9977;DHT22;5029;47.378;11.776;2023-03-14T06:32:13;4.70;99.90
9977;DHT22;5029;47.378;11.776;2023-03-14T06:37:16;4.80;99.90
9977;DHT22;5029;47.378;11.776;2023-03-14T06:42:22;4.80;99.90
9977;DHT22;5029;47.378;11.776;2023-03-14T06:47:27;4.80;99.90
9977;DHT22;5029;47.378;11.776;2023-03-14T06:52:30;4.80;99.90
9977;DHT22;5029;47.378;11.776;2023-03-14T06:57:33;4.90;99.90
9977;DHT22;5029;47.378;11.776;2023-03-14T07:02:38;4.90;99.90
9977;DHT22;5029;47.378;11.776;2023-03-14T07:07:44;4.90;99.90
9977;DHT22;5029;47.378;11.776;2023-03-14T07:12:47;4.90;99.90
9977;DHT22;5029;47.378;11.776;2023-03-14T07:17:52;4.90;99.90
9977;DHT22;5029;47.378;11.776;2023-03-14T07:22:55;4.90;99.90
9977;DHT22;5029;47.378;11.776;2023-03-14T07:27:59;4.90;99.90
9977;DHT22;5029;47.378;11.776;2023-03-14T07:33:03;5.00;99.90
9977;DHT22;5029;47.378;11.776;2023-03-14T07:38:07;5.00;99.90
9977;DHT22;5029;47.378;11.776;2023-03-14T07:43:10;5.00;99.90
9977;DHT22;5029;47.378;11.776;2023-03-14T07:48:15;5.10;99.90
9977;DHT22;5029;47.378;11.776;2023-03-14T07:53:19;5.10;99.90
9977;DHT22;5029;47.378;11.776;2023-03-14T07:58:23;5.10;99.90
9977;DHT22;5029;47.378;11.776;2023-03-14T08:03:28;5.00;99.90
9977;DHT22;5029;47.378;11.776;2023-03-14T08:08:31;5.10;99.90
9977;DHT22;5029;47.378;11.776;2023-03-14T08:13:36;5.10;99.90
9977;DHT22;5029;47.378;11.776;2023-03-14T08:18:41;5.10;99.90
9977;DHT22;5029;47.378;11.776;2023-03-14T08:23:44;5.10;99.90
9977;DHT22;5029;47.378;11.776;2023-03-14T08:28:48;5.10;99.90
9977;DHT22;5029;47.378;11.776;2023-03-14T08:33:52;5.00;99.90
9977;DHT22;5029;47.378;11.776;2023-03-14T08:38:57;5.00;99.90
9977;DHT22;5029;47.378;11.776;2023-03-14T08:44:00;5.00;99.90
9977;DHT22;5029;47.378;11.776;2023-03-14T08:49:05;5.00;99.90
9977;DHT22;5029;47.378;11.776;2023-03-14T08:54:10;4.90;99.90
9977;DHT22;5029;47.378;11.776;2023-03-14T08:59:13;5.00;99.90
9977;DHT22;5029;47.378;11.776;2023-03-14T09:04:18;5.00;99.90
9977;DHT22;5029;47.378;11.776;2023-03-14T09:09:21;5.00;99.90
9977;DHT22;5029;47.378;11.776;2023-03-14T09:14:25;5.10;99.90
9977;DHT22;5029;47.378;11.776;2023-03-14T09:19:30;5.10;99.90
9977;DHT22;5029;47.378;11.776;2023-03-14T09:24:33;5.00;99.90
9977;DHT22;5029;47.378;11.776;2023-03-14T09:29:37;5.00;99.90
9977;DHT22;5029;47.378;11.776;2023-03-14T09:34:41;5.00;99.90
9977;DHT22;5029;47.378;11.776;2023-03-14T09:39:45;4.90;99.90
9977;DHT22;5029;47.378;11.776;2023-03-14T09:44:53;4.90;99.90
9977;DHT22;5029;47.378;11.776;2023-03-14T09:50:00;5.00;99.90
9977;DHT22;5029;47.378;11.776;2023-03-14T09:55:05;4.90;99.90
9977;DHT22;5029;47.378;11.776;2023-03-14T10:00:14;4.70;99.90
9977;DHT22;5029;47.378;11.776;2023-03-14T10:05:22;4.70;99.90
9977;DHT22;5029;47.378;11.776;2023-03-14T10:10:26;4.90;99.90
9977;DHT22;5029;47.378;11.776;2023-03-14T10:15:31;5.00;99.90
9977;DHT22;5029;47.378;11.776;2023-03-14T10:20:38;4.90;99.90
9977;DHT22;5029;47.378;11.776;2023-03-14T10:25:45;4.90;99.90
9977;DHT22;5029;47.378;11.776;2023-03-14T10:30:48;4.60;99.90
9977;DHT22;5029;47.378;11.776;2023-03-14T10:35:58;4.90;99.90
9977;DHT22;5029;47.378;11.776;2023-03-14T10:41:13;5.10;99.90
9977;DHT22;5029;47.378;11.776;2023-03-14T10:46:18;5.50;99.90
9977;DHT22;5029;47.378;11.776;2023-03-14T10:51:27;5.80;99.90
9977;DHT22;5029;47.378;11.776;2023-03-14T10:56:34;6.20;99.90
9977;DHT22;5029;47.378;11.776;2023-03-14T11:01:41;6.70;99.90
9977;DHT22;5029;47.378;11.776;2023-03-14T11:06:57;6.60;99.90
9977;DHT22;5029;47.378;11.776;2023-03-14T11:12:13;6.60;99.90
9977;DHT22;5029;47.378;11.776;2023-03-14T11:17:27;6.50;99.90
9977;DHT22;5029;47.378;11.776;2023-03-14T11:22:41;6.40;99.90
9977;DHT22;5029;47.378;11.776;2023-03-14T11:27:51;6.20;99.90
9977;DHT22;5029;47.378;11.776;2023-03-14T11:32:59;6.10;99.90
9977;DHT22;5029;47.378;11.776;2023-03-14T11:38:18;6.40;99.90
9977;DHT22;5029;47.378;11.776;2023-03-14T11:43:27;6.60;99.90
9977;DHT22;5029;47.378;11.776;2023-03-14T11:48:37;6.60;99.90
9977;DHT22;5029;47.378;11.776;2023-03-14T11:53:50;6.40;99.90
9977;DHT22;5029;47.378;11.776;2023-03-14T11:58:59;6.30;99.90
9977;DHT22;5029;47.378;11.776;2023-03-14T12:04:10;6.40;99.90
9977;DHT22;5029;47.378;11.776;2023-03-14T12:09:17;6.50;99.90
9977;DHT22;5029;47.378;11.776;2023-03-14T12:14:24;6.60;99.90
9977;DHT22;5029;47.378;11.776;2023-03-14T12:19:33;6.80;99.90
9977;DHT22;5029;47.378;11.776;2023-03-14T12:24:45;6.80;99.90
9977;DHT22;5029;47.378;11.776;2023-03-14T12:30:00;6.90;99.90
9977;DHT22;5029;47.378;11.776;2023-03-14T12:35:32;6.80;99.90
9977;DHT22;5029;47.378;11.776;2023-03-14T12:40:40;6.70;99.90
9977;DHT22;5029;47.378;11.776;2023-03-14T12:46:08;6.90;99.90
9977;DHT22;5029;47.378;11.776;2023-03-14T12:51:13;6.90;99.90
9977;DHT22;5029;47.378;11.776;2023-03-14T12:56:28;6.70;99.90
9977;DHT22;5029;47.378;11.776;2023-03-14T13:01:33;6.70;99.90
9977;DHT22;5029;47.378;11.776;2023-03-14T13:06:52;6.70;99.90
9977;DHT22;5029;47.378;11.776;2023-03-14T13:12:02;6.90;99.90
9977;DHT22;5029;47.378;11.776;2023-03-14T13:17:10;7.10;99.90
9977;DHT22;5029;47.378;11.776;2023-03-14T13:22:34;7.10;99.90
9977;DHT22;5029;47.378;11.776;2023-03-14T13:27:42;6.70;99.90
9977;DHT22;5029;47.378;11.776;2023-03-14T13:32:46;6.40;99.90
9977;DHT22;5029;47.378;11.776;2023-03-14T13:37:55;6.40;99.90
9977;DHT22;5029;47.378;11.776;2023-03-14T13:43:18;6.50;99.90
9977;DHT22;5029;47.378;11.776;2023-03-14T13:48:22;6.30;99.90
9977;DHT22;5029;47.378;11.776;2023-03-14T13:53:28;6.50;99.90
9977;DHT22;5029;47.378;11.776;2023-03-14T13:58:37;6.90;99.90
9977;DHT22;5029;47.378;11.776;2023-03-14T14:03:42;6.80;99.90
9977;DHT22;5029;47.378;11.776;2023-03-14T14:08:46;6.80;99.90
9977;DHT22;5029;47.378;11.776;2023-03-14T14:13:50;6.50;99.90
9977;DHT22;5029;47.378;11.776;2023-03-14T14:18:55;6.20;99.90
9977;DHT22;5029;47.378;11.776;2023-03-14T14:23:59;6.20;99.90
9977;DHT22;5029;47.378;11.776;2023-03-14T14:29:05;6.30;99.90
9977;DHT22;5029;47.378;11.776;2023-03-14T14:34:18;6.40;99.90
9977;DHT22;5029;47.378;11.776;2023-03-14T14:39:24;6.60;99.90
9977;DHT22;5029;47.378;11.776;2023-03-14T14:44:33;6.50;99.90
9977;DHT22;5029;47.378;11.776;2023-03-14T14:49:37;6.30;99.90
9977;DHT22;5029;47.378;11.776;2023-03-14T14:54:44;6.10;99.90
9977;DHT22;5029;47.378;11.776;2023-03-14T14:59:55;5.90;99.90
9977;DHT22;5029;47.378;11.776;2023-03-14T15:04:59;6.20;99.90
9977;DHT22;5029;47.378;11.776;2023-03-14T15:10:03;6.00;99.90
9977;DHT22;5029;47.378;11.776;2023-03-14T15:15:10;5.90;99.90
9977;DHT22;5029;47.378;11.776;2023-03-14T15:20:15;6.20;99.90
9977;DHT22;5029;47.378;11.776;2023-03-14T15:25:19;5.80;99.90
9977;DHT22;5029;47.378;11.776;2023-03-14T15:30:44;5.90;99.90
9977;DHT22;5029;47.378;11.776;2023-03-14T15:35:48;6.20;99.90
9977;DHT22;5029;47.378;11.776;2023-03-14T15:40:52;6.30;99.90
9977;DHT22;5029;47.378;11.776;2023-03-14T15:45:57;6.20;99.90
9977;DHT22;5029;47.378;11.776;2023-03-14T15:51:01;6.20;99.90
9977;DHT22;5029;47.378;11.776;2023-03-14T15:56:05;6.40;99.90
9977;DHT22;5029;47.378;11.776;2023-03-14T16:01:10;6.50;99.90
9977;DHT22;5029;47.378;11.776;2023-03-14T16:06:14;6.40;99.90
9977;DHT22;5029;47.378;11.776;2023-03-14T16:11:17;6.20;99.90
9977;DHT22;5029;47.378;11.776;2023-03-14T16:16:25;6.10;99.90
9977;DHT22;5029;47.378;11.776;2023-03-14T16:21:28;5.90;99.90
9977;DHT22;5029;47.378;11.776;2023-03-14T16:26:32;5.70;99.90
9977;DHT22;5029;47.378;11.776;2023-03-14T16:31:39;5.60;99.90
9977;DHT22;5029;47.378;11.776;2023-03-14T16:36:44;5.70;99.90
9977;DHT22;5029;47.378;11.776;2023-03-14T16:41:48;5.60;99.90
9977;DHT22;5029;47.378;11.776;2023-03-14T16:47:00;5.50;99.90
9977;DHT22;5029;47.378;11.776;2023-03-14T16:52:05;5.50;99.90
9977;DHT22;5029;47.378;11.776;2023-03-14T16:57:13;5.50;99.90
9977;DHT22;5029;47.378;11.776;2023-03-14T17:02:19;5.50;99.90
9977;DHT22;5029;47.378;11.776;2023-03-14T17:07:29;5.20;99.90
9977;DHT22;5029;47.378;11.776;2023-03-14T17:12:33;5.20;99.90
9977;DHT22;5029;47.378;11.776;2023-03-14T17:17:38;5.20;99.90
9977;DHT22;5029;47.378;11.776;2023-03-14T17:22:42;5.20;99.90
9977;DHT22;5029;47.378;11.776;2023-03-14T17:27:45;5.10;99.90
9977;DHT22;5029;47.378;11.776;2023-03-14T17:32:58;4.90;99.90
9977;DHT22;5029;47.378;11.776;2023-03-14T17:38:05;5.00;99.90
9977;DHT22;5029;47.378;11.776;2023-03-14T17:43:10;5.00;99.90
9977;DHT22;5029;47.378;11.776;2023-03-14T17:48:16;5.30;99.90
9977;DHT22;5029;47.378;11.776;2023-03-14T17:53:20;5.50;99.90
9977;DHT22;5029;47.378;11.776;2023-03-14T17:58:25;5.40;99.90
9977;DHT22;5029;47.378;11.776;2023-03-14T18:03:32;5.20;99.90
9977;DHT22;5029;47.378;11.776;2023-03-14T18:08:37;5.00;99.90
9977;DHT22;5029;47.378;11.776;2023-03-14T18:13:43;5.20;99.90
9977;DHT22;5029;47.378;11.776;2023-03-14T18:18:51;4.70;99.90
9977;DHT22;5029;47.378;11.776;2023-03-14T18:23:58;4.60;99.90
9977;DHT22;5029;47.378;11.776;2023-03-14T18:29:03;4.40;99.90
9977;DHT22;5029;47.378;11.776;2023-03-14T18:34:09;4.30;99.90
9977;DHT22;5029;47.378;11.776;2023-03-14T18:39:14;4.40;99.90
9977;DHT22;5029;47.378;11.776;2023-03-14T18:44:20;4.00;99.90
9977;DHT22;5029;47.378;11.776;2023-03-14T18:49:25;3.70;99.90
9977;DHT22;5029;47.378;11.776;2023-03-14T18:54:30;3.20;99.90
9977;DHT22;5029;47.378;11.776;2023-03-14T18:59:35;3.30;99.90
9977;DHT22;5029;47.378;11.776;2023-03-14T19:04:41;3.50;99.90
9977;DHT22;5029;47.378;11.776;2023-03-14T19:09:46;3.40;99.90
9977;DHT22;5029;47.378;11.776;2023-03-14T19:14:51;3.60;99.90
9977;DHT22;5029;47.378;11.776;2023-03-14T19:19:57;3.90;99.90
9977;DHT22;5029;47.378;11.776;2023-03-14T19:25:07;3.80;99.90
9977;DHT22;5029;47.378;11.776;2023-03-14T19:30:13;3.50;99.90
9977;DHT22;5029;47.378;11.776;2023-03-14T19:35:32;3.40;99.90
9977;DHT22;5029;47.378;11.776;2023-03-14T19:40:40;3.50;99.90
9977;DHT22;5029;47.378;11.776;2023-03-14T19:45:47;3.50;99.90
9977;DHT22;5029;47.378;11.776;2023-03-14T19:50:55;3.60;99.90
9977;DHT22;5029;47.378;11.776;2023-03-14T19:56:01;3.70;99.90
9977;DHT22;5029;47.378;11.776;2023-03-14T20:01:12;3.50;99.90
9977;DHT22;5029;47.378;11.776;2023-03-14T20:06:28;3.50;99.90
9977;DHT22;5029;47.378;11.776;2023-03-14T20:11:33;3.20;99.90
9977;DHT22;5029;47.378;11.776;2023-03-14T20:16:44;3.20;99.90
9977;DHT22;5029;47.378;11.776;2023-03-14T20:21:51;3.10;99.90
9977;DHT22;5029;47.378;11.776;2023-03-14T20:26:59;3.00;99.90
9977;DHT22;5029;47.378;11.776;2023-03-14T20:32:07;3.20;99.90
9977;DHT22;5029;47.378;11.776;2023-03-14T20:37:14;3.00;99.90
9977;DHT22;5029;47.378;11.776;2023-03-14T20:42:27;3.40;99.90
9977;DHT22;5029;47.378;11.776;2023-03-14T20:47:49;3.50;99.90
9977;DHT22;5029;47.378;11.776;2023-03-14T20:52:56;3.70;99.90
9977;DHT22;5029;47.378;11.776;2023-03-14T20:58:02;3.80;99.90
9977;DHT22;5029;47.378;11.776;2023-03-14T21:03:06;3.60;99.90
9977;DHT22;5029;47.378;11.776;2023-03-14T21:08:16;3.60;99.90
9977;DHT22;5029;47.378;11.776;2023-03-14T21:13:23;3.50;99.90
9977;DHT22;5029;47.378;11.776;2023-03-14T21:18:27;3.70;99.90
9977;DHT22;5029;47.378;11.776;2023-03-14T21:23:34;3.80;99.90
9977;DHT22;5029;47.378;11.776;2023-03-14T21:28:38;3.80;99.90
9977;DHT22;5029;47.378;11.776;2023-03-14T21:33:45;3.60;99.90
9977;DHT22;5029;47.378;11.776;2023-03-14T21:38:51;3.50;99.90
9977;DHT22;5029;47.378;11.776;2023-03-14T21:43:55;3.50;99.90
9977;DHT22;5029;47.378;11.776;2023-03-14T21:48:59;3.20;99.90
9977;DHT22;5029;47.378;11.776;2023-03-14T21:54:04;3.30;99.90
9977;DHT22;5029;47.378;11.776;2023-03-14T21:59:11;3.10;99.90
9977;DHT22;5029;47.378;11.776;2023-03-14T22:04:15;3.10;99.90
9977;DHT22;5029;47.378;11.776;2023-03-14T22:09:20;3.20;99.90
9977;DHT22;5029;47.378;11.776;2023-03-14T22:14:24;2.90;99.90
9977;DHT22;5029;47.378;11.776;2023-03-14T22:19:28;2.90;99.90
9977;DHT22;5029;47.378;11.776;2023-03-14T22:24:33;2.80;99.90
9977;DHT22;5029;47.378;11.776;2023-03-14T22:29:36;2.90;99.90
9977;DHT22;5029;47.378;11.776;2023-03-14T22:34:40;2.80;99.90
9977;DHT22;5029;47.378;11.776;2023-03-14T22:39:45;2.80;99.90
9977;DHT22;5029;47.378;11.776;2023-03-14T22:44:50;2.80;99.90
9977;DHT22;5029;47.378;11.776;2023-03-14T22:49:54;2.70;99.90
9977;DHT22;5029;47.378;11.776;2023-03-14T22:54:59;2.90;99.90
9977;DHT22;5029;47.378;11.776;2023-03-14T23:00:03;2.90;99.90
9977;DHT22;5029;47.378;11.776;2023-03-14T23:05:09;2.90;99.90
9977;DHT22;5029;47.378;11.776;2023-03-14T23:10:14;2.80;99.90
9977;DHT22;5029;47.378;11.776;2023-03-14T23:15:17;2.80;99.90
9977;DHT22;5029;47.378;11.776;2023-03-14T23:20:20;2.40;99.90
9977;DHT22;5029;47.378;11.776;2023-03-14T23:25:25;2.40;99.90
9977;DHT22;5029;47.378;11.776;2023-03-14T23:30:37;2.30;99.90
9977;DHT22;5029;47.378;11.776;2023-03-14T23:35:40;2.20;99.90
9977;DHT22;5029;47.378;11.776;2023-03-14T23:40:45;2.30;99.90
9977;DHT22;5029;47.378;11.776;2023-03-14T23:45:48;2.10;99.90
9977;DHT22;5029;47.378;11.776;2023-03-14T23:50:54;2.20;99.90
9977;DHT22;5029;47.378;11.776;2023-03-14T23:56:00;2.10;99.90
